DAL224 KATL-PHNL
Flight info
| Callsign | DAL224 |
|---|---|
| Flight time | N/A |
| Altitude | 30000 |
| Route | CUTTN2 HANKO MEMFS ECIGE RZC BVO ICT HLC MBW/N0474F320 DNW DBS DNJ IMB ONP HEMLO A332 HEKAB/N0472F340 A332 AUNTI R463 APACK MAGGI3 |
| Aircraft | B764/H-SDE3FGHIM3RWXY/LB1 |
Departure
| Time | N/A |
|---|---|
| Airport | Hartsfield Jackson Atlanta International Airport (KATL) |
Arrival
| Time | 2026-05-01 13:01 |
|---|---|
| Airport | Daniel K. Inouye International Airport (PHNL) |
| Time | Latitude | Longitude | Altitude | Speed | Heading |
|---|---|---|---|---|---|
| 2026-05-01 07:23 | 43.89155 | -110.76936 | 30266 ft | 543 kts | 284° |
| 2026-05-01 07:24 | 43.91348 | -110.92272 | 30272 ft | 541 kts | 284° |
| 2026-05-01 07:24 | 43.92803 | -111.02520 | 30265 ft | 541 kts | 284° |
| 2026-05-01 07:25 | 43.94252 | -111.12800 | 30248 ft | 543 kts | 283° |
| 2026-05-01 07:25 | 43.95690 | -111.23089 | 30249 ft | 543 kts | 283° |
| 2026-05-01 07:26 | 43.97120 | -111.33387 | 30229 ft | 543 kts | 283° |
| 2026-05-01 07:26 | 43.98533 | -111.43623 | 30221 ft | 543 kts | 283° |
| 2026-05-01 07:27 | 43.99948 | -111.53942 | 30215 ft | 543 kts | 283° |
| 2026-05-01 07:27 | 44.01353 | -111.64266 | 30215 ft | 544 kts | 283° |
| 2026-05-01 07:28 | 44.02741 | -111.74554 | 30221 ft | 544 kts | 283° |
| 2026-05-01 07:28 | 44.04130 | -111.84912 | 30207 ft | 544 kts | 283° |
| 2026-05-01 07:29 | 44.05509 | -111.95261 | 30215 ft | 544 kts | 283° |
| 2026-05-01 07:29 | 44.06879 | -112.05615 | 30207 ft | 545 kts | 283° |
| 2026-05-01 07:30 | 44.08234 | -112.15958 | 30194 ft | 545 kts | 282° |
| 2026-05-01 07:30 | 44.09892 | -112.26200 | 30200 ft | 541 kts | 288° |
| 2026-05-01 07:31 | 44.11790 | -112.36356 | 30207 ft | 543 kts | 288° |
| 2026-05-01 07:32 | 44.16514 | -112.61678 | 30195 ft | 541 kts | 287° |
| 2026-05-01 07:33 | 44.19327 | -112.76928 | 30197 ft | 541 kts | 287° |
| 2026-05-01 07:33 | 44.22116 | -112.92176 | 30164 ft | 541 kts | 287° |
| 2026-05-01 07:34 | 44.24886 | -113.07443 | 30196 ft | 540 kts | 287° |
| 2026-05-01 07:35 | 44.26719 | -113.17611 | 30192 ft | 540 kts | 287° |
| 2026-05-01 07:35 | 44.28530 | -113.27716 | 30198 ft | 540 kts | 287° |
| 2026-05-01 07:36 | 44.30347 | -113.37912 | 30178 ft | 541 kts | 286° |
| 2026-05-01 07:36 | 44.32156 | -113.48120 | 30172 ft | 542 kts | 286° |
| 2026-05-01 07:37 | 44.34851 | -113.63432 | 30190 ft | 542 kts | 286° |
| 2026-05-01 07:37 | 44.36642 | -113.73686 | 30190 ft | 542 kts | 286° |
| 2026-05-01 07:38 | 44.38420 | -113.83931 | 30205 ft | 543 kts | 286° |
| 2026-05-01 07:39 | 44.41075 | -113.99318 | 30194 ft | 540 kts | 286° |
| 2026-05-01 07:39 | 44.43691 | -114.14627 | 30219 ft | 540 kts | 286° |
| 2026-05-01 07:40 | 44.45430 | -114.24874 | 30235 ft | 541 kts | 285° |
| 2026-05-01 07:40 | 44.47151 | -114.35061 | 30224 ft | 540 kts | 285° |
| 2026-05-01 07:41 | 44.48870 | -114.45307 | 30162 ft | 541 kts | 285° |
| 2026-05-01 07:42 | 44.51424 | -114.60651 | 30163 ft | 536 kts | 285° |
| 2026-05-01 07:42 | 44.53111 | -114.70848 | 30161 ft | 538 kts | 285° |
| 2026-05-01 07:43 | 44.54779 | -114.81018 | 30131 ft | 538 kts | 285° |
| 2026-05-01 07:43 | 44.57278 | -114.96335 | 30131 ft | 538 kts | 285° |
| 2026-05-01 07:44 | 44.60527 | -115.16482 | 30143 ft | 534 kts | 285° |
| 2026-05-01 07:45 | 44.62155 | -115.26657 | 30141 ft | 534 kts | 285° |
| 2026-05-01 07:45 | 44.63776 | -115.36858 | 30144 ft | 534 kts | 285° |
| 2026-05-01 07:46 | 44.65384 | -115.47038 | 30135 ft | 534 kts | 285° |
| 2026-05-01 07:47 | 44.67764 | -115.62223 | 30138 ft | 530 kts | 284° |
| 2026-05-01 07:47 | 44.69343 | -115.72370 | 30151 ft | 531 kts | 284° |
| 2026-05-01 07:48 | 44.71693 | -115.87607 | 30180 ft | 531 kts | 284° |
| 2026-05-01 07:48 | 44.73244 | -115.97735 | 30199 ft | 530 kts | 284° |
| 2026-05-01 07:49 | 44.75546 | -116.12916 | 30203 ft | 526 kts | 284° |
| 2026-05-01 07:50 | 44.76714 | -116.23029 | 30215 ft | 529 kts | 276° |
| 2026-05-01 07:50 | 44.76879 | -116.38607 | 30185 ft | 530 kts | 272° |
| 2026-05-01 07:51 | 44.76958 | -116.48973 | 30177 ft | 529 kts | 272° |
| 2026-05-01 07:52 | 44.77063 | -116.64526 | 30173 ft | 530 kts | 272° |
| 2026-05-01 07:52 | 44.77120 | -116.74831 | 30161 ft | 528 kts | 272° |
| 2026-05-01 07:53 | 44.77190 | -116.90149 | 30142 ft | 518 kts | 272° |
| 2026-05-01 07:53 | 44.77224 | -117.00329 | 30167 ft | 522 kts | 272° |
| 2026-05-01 07:55 | 44.77272 | -117.25804 | 30168 ft | 521 kts | 272° |
| 2026-05-01 07:56 | 44.77262 | -117.51322 | 30185 ft | 521 kts | 271° |
| 2026-05-01 07:57 | 44.77229 | -117.66573 | 30184 ft | 515 kts | 271° |
| 2026-05-01 07:58 | 44.77153 | -117.86691 | 30196 ft | 517 kts | 271° |
| 2026-05-01 07:59 | 44.77044 | -118.06840 | 30185 ft | 513 kts | 271° |
| 2026-05-01 08:00 | 44.76814 | -118.36942 | 30185 ft | 513 kts | 271° |
| 2026-05-01 08:01 | 44.76619 | -118.56894 | 30174 ft | 508 kts | 271° |
| 2026-05-01 08:02 | 44.76448 | -118.71842 | 30179 ft | 510 kts | 271° |
| 2026-05-01 08:03 | 44.76257 | -118.86803 | 30148 ft | 509 kts | 271° |
| 2026-05-01 08:03 | 44.76051 | -119.01691 | 30156 ft | 510 kts | 271° |
| 2026-05-01 08:04 | 44.75770 | -119.19953 | 30168 ft | 509 kts | 271° |
| 2026-05-01 08:05 | 44.75515 | -119.34862 | 30149 ft | 504 kts | 271° |
| 2026-05-01 08:06 | 44.75247 | -119.49636 | 30151 ft | 504 kts | 271° |
| 2026-05-01 08:07 | 44.74863 | -119.69325 | 30139 ft | 504 kts | 271° |
| 2026-05-01 08:08 | 44.74550 | -119.84061 | 30119 ft | 501 kts | 271° |
| 2026-05-01 08:09 | 44.74102 | -120.03688 | 30115 ft | 503 kts | 271° |
| 2026-05-01 08:09 | 44.73870 | -120.13501 | 30107 ft | 502 kts | 271° |
| 2026-05-01 08:10 | 44.73379 | -120.32951 | 30098 ft | 498 kts | 271° |
| 2026-05-01 08:11 | 44.72852 | -120.52452 | 30086 ft | 498 kts | 271° |
| 2026-05-01 08:12 | 44.72441 | -120.66981 | 30089 ft | 497 kts | 271° |
| 2026-05-01 08:13 | 44.72006 | -120.81566 | 30089 ft | 498 kts | 271° |
| 2026-05-01 08:13 | 44.71554 | -120.96147 | 30088 ft | 497 kts | 270° |
| 2026-05-01 08:14 | 44.71243 | -121.05844 | 30084 ft | 495 kts | 270° |
| 2026-05-01 08:14 | 44.70926 | -121.15513 | 30088 ft | 495 kts | 270° |
| 2026-05-01 08:15 | 44.70435 | -121.29984 | 30088 ft | 497 kts | 269° |
| 2026-05-01 08:16 | 44.70095 | -121.39684 | 30084 ft | 496 kts | 269° |
| 2026-05-01 08:16 | 44.69747 | -121.49366 | 30092 ft | 496 kts | 269° |
| 2026-05-01 08:17 | 44.69391 | -121.59057 | 30089 ft | 496 kts | 269° |
| 2026-05-01 08:17 | 44.69028 | -121.68750 | 30091 ft | 496 kts | 269° |
| 2026-05-01 08:18 | 44.68657 | -121.78366 | 30090 ft | 496 kts | 269° |
| 2026-05-01 08:19 | 44.67892 | -121.97694 | 30101 ft | 494 kts | 269° |
| 2026-05-01 08:19 | 44.67496 | -122.07337 | 30096 ft | 495 kts | 269° |
| 2026-05-01 08:20 | 44.67092 | -122.16992 | 30082 ft | 495 kts | 269° |
| 2026-05-01 08:20 | 44.66681 | -122.26656 | 30087 ft | 495 kts | 269° |
| 2026-05-01 08:21 | 44.66261 | -122.36241 | 30053 ft | 494 kts | 269° |
| 2026-05-01 08:21 | 44.65836 | -122.45869 | 30077 ft | 495 kts | 269° |
| 2026-05-01 08:22 | 44.65400 | -122.55535 | 30075 ft | 495 kts | 268° |
| 2026-05-01 08:22 | 44.64955 | -122.65172 | 30066 ft | 494 kts | 268° |
| 2026-05-01 08:23 | 44.64504 | -122.74795 | 30050 ft | 493 kts | 268° |
| 2026-05-01 08:23 | 44.64049 | -122.84344 | 30060 ft | 493 kts | 268° |
| 2026-05-01 08:24 | 44.63582 | -122.93970 | 30042 ft | 494 kts | 268° |
| 2026-05-01 08:24 | 44.63107 | -123.03580 | 30067 ft | 494 kts | 268° |
| 2026-05-01 08:25 | 44.62622 | -123.13226 | 30081 ft | 493 kts | 267° |
| 2026-05-01 08:25 | 44.62131 | -123.22824 | 30094 ft | 492 kts | 267° |
| 2026-05-01 08:26 | 44.61644 | -123.32207 | 30087 ft | 493 kts | 267° |
| 2026-05-01 08:26 | 44.61131 | -123.41895 | 30086 ft | 494 kts | 267° |
| 2026-05-01 08:27 | 44.60617 | -123.51493 | 30098 ft | 492 kts | 267° |
| 2026-05-01 08:27 | 44.60095 | -123.61055 | 30095 ft | 491 kts | 266° |
| 2026-05-01 08:28 | 44.59567 | -123.70619 | 30116 ft | 491 kts | 266° |
| 2026-05-01 08:28 | 44.59031 | -123.80153 | 30138 ft | 492 kts | 266° |
| 2026-05-01 08:29 | 44.58486 | -123.89720 | 30157 ft | 491 kts | 266° |
| 2026-05-01 08:29 | 44.57934 | -123.99268 | 30155 ft | 491 kts | 266° |
| 2026-05-01 08:29 | 44.57426 | -124.03993 | 30150 ft | 491 kts | 254° |
| 2026-05-01 08:30 | 44.56146 | -124.08430 | 30179 ft | 492 kts | 246° |
| 2026-05-01 08:30 | 44.52585 | -124.16673 | 30170 ft | 496 kts | 239° |
| 2026-05-01 08:31 | 44.48843 | -124.24720 | 30147 ft | 496 kts | 238° |
| 2026-05-01 08:31 | 44.45047 | -124.32832 | 30133 ft | 494 kts | 238° |
| 2026-05-01 08:32 | 44.41303 | -124.40813 | 30131 ft | 494 kts | 238° |
| 2026-05-01 08:32 | 44.37520 | -124.48856 | 30136 ft | 495 kts | 238° |
| 2026-05-01 08:33 | 44.33734 | -124.56882 | 30133 ft | 493 kts | 238° |
| 2026-05-01 08:33 | 44.29961 | -124.64852 | 30137 ft | 490 kts | 237° |
| 2026-05-01 08:34 | 44.26182 | -124.72816 | 30147 ft | 492 kts | 237° |
| 2026-05-01 08:34 | 44.22395 | -124.80776 | 30142 ft | 492 kts | 237° |
| 2026-05-01 08:35 | 44.18635 | -124.88653 | 30145 ft | 489 kts | 237° |
| 2026-05-01 08:35 | 44.14870 | -124.96530 | 30153 ft | 489 kts | 237° |
| 2026-05-01 08:36 | 44.11081 | -125.04429 | 30160 ft | 490 kts | 237° |
| 2026-05-01 08:36 | 44.07287 | -125.12313 | 30155 ft | 490 kts | 237° |
| 2026-05-01 08:37 | 44.03489 | -125.20194 | 30167 ft | 489 kts | 237° |
| 2026-05-01 08:37 | 43.99711 | -125.28006 | 30155 ft | 490 kts | 237° |
| 2026-05-01 08:38 | 43.95907 | -125.35849 | 30168 ft | 489 kts | 236° |
| 2026-05-01 08:38 | 43.92116 | -125.43645 | 30163 ft | 485 kts | 236° |
| 2026-05-01 08:39 | 43.88327 | -125.51421 | 30167 ft | 487 kts | 236° |
| 2026-05-01 08:39 | 43.84521 | -125.59204 | 30171 ft | 487 kts | 236° |
| 2026-05-01 08:40 | 43.78827 | -125.70817 | 30169 ft | 486 kts | 236° |
| 2026-05-01 08:40 | 43.75020 | -125.78555 | 30179 ft | 486 kts | 236° |
| 2026-05-01 08:41 | 43.71193 | -125.86311 | 30180 ft | 487 kts | 236° |
| 2026-05-01 08:41 | 43.67371 | -125.94037 | 30180 ft | 486 kts | 236° |
| 2026-05-01 08:42 | 43.63554 | -126.01735 | 30185 ft | 485 kts | 236° |
| 2026-05-01 08:42 | 43.59730 | -126.09428 | 30183 ft | 486 kts | 236° |
| 2026-05-01 08:43 | 43.55925 | -126.17067 | 30190 ft | 486 kts | 235° |
| 2026-05-01 08:43 | 43.52102 | -126.24707 | 30192 ft | 482 kts | 235° |
| 2026-05-01 08:44 | 43.48284 | -126.32325 | 30192 ft | 483 kts | 235° |
| 2026-05-01 08:44 | 43.44465 | -126.39928 | 30197 ft | 484 kts | 235° |
| 2026-05-01 08:45 | 43.40642 | -126.47512 | 30199 ft | 479 kts | 234° |
| 2026-05-01 08:45 | 43.36836 | -126.55054 | 30201 ft | 479 kts | 234° |
| 2026-05-01 08:46 | 43.33043 | -126.62546 | 30202 ft | 481 kts | 234° |
| 2026-05-01 08:46 | 43.29334 | -126.70202 | 30197 ft | 480 kts | 240° |
| 2026-05-01 08:47 | 43.26096 | -126.78207 | 30204 ft | 479 kts | 239° |
| 2026-05-01 08:47 | 43.22841 | -126.86196 | 30212 ft | 480 kts | 239° |
| 2026-05-01 08:48 | 43.19571 | -126.94173 | 30217 ft | 480 kts | 239° |
| 2026-05-01 08:48 | 43.16305 | -127.02111 | 30210 ft | 476 kts | 239° |
| 2026-05-01 08:49 | 43.13068 | -127.09967 | 30204 ft | 477 kts | 239° |
| 2026-05-01 08:49 | 43.09797 | -127.17878 | 30226 ft | 478 kts | 239° |
| 2026-05-01 08:50 | 43.06520 | -127.25784 | 30214 ft | 476 kts | 239° |
| 2026-05-01 08:50 | 43.03256 | -127.33637 | 30218 ft | 474 kts | 239° |
| 2026-05-01 08:51 | 42.99987 | -127.41482 | 30224 ft | 476 kts | 238° |
| 2026-05-01 08:51 | 42.96721 | -127.49292 | 30230 ft | 475 kts | 238° |
| 2026-05-01 08:52 | 42.93444 | -127.57115 | 30229 ft | 473 kts | 238° |
| 2026-05-01 08:52 | 42.90166 | -127.64917 | 30232 ft | 474 kts | 238° |
| 2026-05-01 08:53 | 42.86879 | -127.72719 | 30237 ft | 475 kts | 238° |
| 2026-05-01 08:53 | 42.84138 | -127.79206 | 30238 ft | 474 kts | 238° |
| 2026-05-01 08:54 | 42.80304 | -127.88263 | 30237 ft | 474 kts | 238° |
| 2026-05-01 08:54 | 42.77003 | -127.96037 | 30238 ft | 474 kts | 238° |
| 2026-05-01 08:55 | 42.74249 | -128.02504 | 30248 ft | 474 kts | 238° |
| 2026-05-01 08:55 | 42.70934 | -128.10269 | 30248 ft | 474 kts | 238° |
| 2026-05-01 08:56 | 42.67622 | -128.18012 | 30249 ft | 473 kts | 238° |
| 2026-05-01 08:56 | 42.64321 | -128.25708 | 30249 ft | 474 kts | 238° |
| 2026-05-01 08:57 | 42.60993 | -128.33447 | 30254 ft | 474 kts | 238° |
| 2026-05-01 08:57 | 42.57653 | -128.41186 | 30255 ft | 474 kts | 238° |
| 2026-05-01 08:58 | 42.54309 | -128.48920 | 30258 ft | 474 kts | 238° |
| 2026-05-01 08:58 | 42.50967 | -128.56632 | 30268 ft | 474 kts | 238° |
| 2026-05-01 08:59 | 42.47634 | -128.64294 | 30261 ft | 474 kts | 237° |
| 2026-05-01 08:59 | 42.44285 | -128.71981 | 30262 ft | 473 kts | 237° |
| 2026-05-01 09:00 | 42.40950 | -128.79618 | 30264 ft | 473 kts | 237° |
| 2026-05-01 09:00 | 42.37587 | -128.87291 | 30262 ft | 473 kts | 237° |
| 2026-05-01 09:01 | 42.34241 | -128.94915 | 30262 ft | 471 kts | 237° |
| 2026-05-01 09:01 | 42.30880 | -129.02544 | 30268 ft | 473 kts | 237° |
| 2026-05-01 09:02 | 42.27506 | -129.10183 | 30282 ft | 472 kts | 237° |
| 2026-05-01 09:02 | 42.24158 | -129.17750 | 30268 ft | 470 kts | 237° |
| 2026-05-01 09:03 | 42.20798 | -129.25325 | 30272 ft | 471 kts | 237° |
| 2026-05-01 09:03 | 42.17422 | -129.32910 | 30274 ft | 471 kts | 237° |
| 2026-05-01 09:04 | 42.14075 | -129.40416 | 30273 ft | 468 kts | 237° |
| 2026-05-01 09:04 | 42.10722 | -129.47915 | 30273 ft | 467 kts | 237° |
| 2026-05-01 09:05 | 42.07354 | -129.55428 | 30278 ft | 469 kts | 237° |
| 2026-05-01 09:05 | 42.03982 | -129.62927 | 30284 ft | 467 kts | 237° |
| 2026-05-01 09:06 | 42.00658 | -129.70311 | 30275 ft | 462 kts | 237° |
| 2026-05-01 09:06 | 41.97317 | -129.77711 | 30282 ft | 464 kts | 237° |
| 2026-05-01 09:07 | 41.93954 | -129.85138 | 30280 ft | 465 kts | 237° |
| 2026-05-01 09:07 | 41.90597 | -129.92539 | 30283 ft | 463 kts | 237° |
| 2026-05-01 09:08 | 41.87236 | -129.99922 | 30284 ft | 463 kts | 237° |
| 2026-05-01 09:08 | 41.83868 | -130.07304 | 30286 ft | 464 kts | 237° |
| 2026-05-01 09:09 | 41.80494 | -130.14682 | 30291 ft | 463 kts | 237° |
| 2026-05-01 09:09 | 41.77155 | -130.21972 | 30288 ft | 462 kts | 237° |
| 2026-05-01 09:10 | 41.73784 | -130.29308 | 30291 ft | 463 kts | 237° |
| 2026-05-01 09:10 | 41.70403 | -130.36647 | 30292 ft | 463 kts | 237° |
| 2026-05-01 09:11 | 41.67023 | -130.43969 | 30288 ft | 462 kts | 237° |
| 2026-05-01 09:11 | 41.63632 | -130.51300 | 30290 ft | 463 kts | 237° |
| 2026-05-01 09:12 | 41.60236 | -130.58616 | 30290 ft | 463 kts | 237° |
| 2026-05-01 09:12 | 41.56862 | -130.65873 | 30289 ft | 461 kts | 238° |
| 2026-05-01 09:13 | 41.53477 | -130.73137 | 30290 ft | 460 kts | 237° |
| 2026-05-01 09:13 | 41.50082 | -130.80399 | 30291 ft | 462 kts | 237° |
| 2026-05-01 09:14 | 41.46681 | -130.87654 | 30290 ft | 461 kts | 238° |
| 2026-05-01 09:14 | 41.43286 | -130.94892 | 30288 ft | 460 kts | 238° |
| 2026-05-01 09:15 | 41.39886 | -131.02116 | 30290 ft | 460 kts | 238° |
| 2026-05-01 09:15 | 41.36501 | -131.09294 | 30290 ft | 461 kts | 238° |
| 2026-05-01 09:16 | 41.33087 | -131.16515 | 30293 ft | 460 kts | 238° |
| 2026-05-01 09:17 | 41.27961 | -131.27322 | 30296 ft | 460 kts | 238° |
| 2026-05-01 09:17 | 41.22818 | -131.38121 | 30296 ft | 461 kts | 238° |
| 2026-05-01 09:18 | 41.17682 | -131.48876 | 30298 ft | 462 kts | 238° |
| 2026-05-01 09:19 | 41.12513 | -131.59660 | 30291 ft | 461 kts | 238° |
| 2026-05-01 09:20 | 41.07328 | -131.70445 | 30301 ft | 463 kts | 238° |
| 2026-05-01 09:21 | 41.00420 | -131.84741 | 30293 ft | 461 kts | 238° |
| 2026-05-01 09:21 | 40.95208 | -131.95491 | 30298 ft | 463 kts | 238° |
| 2026-05-01 09:22 | 40.88253 | -132.09774 | 30297 ft | 462 kts | 239° |
| 2026-05-01 09:23 | 40.83016 | -132.20486 | 30298 ft | 463 kts | 238° |
| 2026-05-01 09:24 | 40.77771 | -132.31176 | 30287 ft | 462 kts | 238° |
| 2026-05-01 09:25 | 40.70751 | -132.45432 | 30300 ft | 463 kts | 238° |
| 2026-05-01 09:26 | 40.65502 | -132.56043 | 30300 ft | 463 kts | 239° |
| 2026-05-01 09:26 | 40.60205 | -132.66716 | 30305 ft | 464 kts | 238° |
| 2026-05-01 09:27 | 40.54904 | -132.77362 | 30305 ft | 463 kts | 238° |
| 2026-05-01 09:28 | 40.51394 | -132.84392 | 30310 ft | 463 kts | 238° |
| 2026-05-01 09:28 | 40.47851 | -132.91472 | 30308 ft | 463 kts | 238° |
| 2026-05-01 09:29 | 40.42533 | -133.02066 | 30308 ft | 463 kts | 238° |
| 2026-05-01 09:30 | 40.37200 | -133.12654 | 30312 ft | 464 kts | 238° |
| 2026-05-01 09:30 | 40.31856 | -133.23228 | 30307 ft | 463 kts | 238° |
| 2026-05-01 09:31 | 40.28312 | -133.30222 | 30319 ft | 464 kts | 238° |
| 2026-05-01 09:32 | 40.22941 | -133.40790 | 30314 ft | 463 kts | 238° |
| 2026-05-01 09:32 | 40.17563 | -133.51336 | 30321 ft | 466 kts | 238° |
| 2026-05-01 09:33 | 40.13957 | -133.58389 | 30319 ft | 465 kts | 238° |
| 2026-05-01 09:34 | 40.08573 | -133.68890 | 30308 ft | 465 kts | 238° |
| 2026-05-01 09:34 | 40.03141 | -133.79444 | 30321 ft | 467 kts | 237° |
| 2026-05-01 09:35 | 39.97728 | -133.89930 | 30316 ft | 466 kts | 237° |
| 2026-05-01 09:36 | 39.94083 | -133.96971 | 30329 ft | 469 kts | 237° |
| 2026-05-01 09:36 | 39.90427 | -134.04016 | 30329 ft | 468 kts | 237° |
| 2026-05-01 09:37 | 39.86775 | -134.11037 | 30321 ft | 468 kts | 237° |
| 2026-05-01 09:37 | 39.81290 | -134.21556 | 30334 ft | 471 kts | 237° |
| 2026-05-01 09:38 | 39.75772 | -134.32104 | 30335 ft | 469 kts | 237° |
| 2026-05-01 09:39 | 39.70230 | -134.42662 | 30336 ft | 472 kts | 237° |
| 2026-05-01 09:39 | 39.66530 | -134.49690 | 30349 ft | 471 kts | 237° |
| 2026-05-01 09:40 | 39.60971 | -134.60222 | 30344 ft | 473 kts | 237° |
| 2026-05-01 09:41 | 39.57265 | -134.67224 | 30339 ft | 473 kts | 237° |
| 2026-05-01 09:41 | 39.51672 | -134.77762 | 30332 ft | 473 kts | 237° |
| 2026-05-01 09:42 | 39.48565 | -134.83600 | 30354 ft | 474 kts | 237° |
| 2026-05-01 09:43 | 39.41070 | -134.97643 | 30348 ft | 473 kts | 237° |
| 2026-05-01 09:43 | 39.37345 | -135.04608 | 30348 ft | 474 kts | 236° |
| 2026-05-01 09:44 | 39.31711 | -135.15115 | 30352 ft | 473 kts | 236° |
| 2026-05-01 09:45 | 39.27951 | -135.22104 | 30354 ft | 474 kts | 236° |
| 2026-05-01 09:45 | 39.22291 | -135.32602 | 30351 ft | 475 kts | 236° |
| 2026-05-01 09:46 | 39.18518 | -135.39578 | 30343 ft | 474 kts | 236° |
| 2026-05-01 09:46 | 39.14735 | -135.46560 | 30353 ft | 476 kts | 236° |
| 2026-05-01 09:47 | 39.10968 | -135.53499 | 30362 ft | 475 kts | 236° |
| 2026-05-01 09:47 | 39.07177 | -135.60463 | 30350 ft | 474 kts | 236° |
| 2026-05-01 09:48 | 39.03381 | -135.67421 | 30364 ft | 476 kts | 236° |
| 2026-05-01 09:48 | 38.99565 | -135.74406 | 30361 ft | 476 kts | 236° |
| 2026-05-01 09:49 | 38.95755 | -135.81361 | 30353 ft | 475 kts | 236° |
| 2026-05-01 09:49 | 38.91941 | -135.88306 | 30366 ft | 476 kts | 236° |
| 2026-05-01 09:50 | 38.88133 | -135.95230 | 30362 ft | 477 kts | 236° |
| 2026-05-01 09:50 | 38.84305 | -136.02174 | 30363 ft | 476 kts | 236° |
| 2026-05-01 09:51 | 38.80462 | -136.09126 | 30370 ft | 479 kts | 236° |
| 2026-05-01 09:51 | 38.76607 | -136.16089 | 30370 ft | 478 kts | 236° |
| 2026-05-01 09:52 | 38.72756 | -136.23031 | 30369 ft | 478 kts | 236° |
| 2026-05-01 09:52 | 38.68870 | -136.30018 | 30375 ft | 482 kts | 236° |
| 2026-05-01 09:53 | 38.64994 | -136.36971 | 30373 ft | 481 kts | 236° |
| 2026-05-01 09:53 | 38.61108 | -136.43930 | 30372 ft | 482 kts | 236° |
| 2026-05-01 09:54 | 38.57187 | -136.50939 | 30378 ft | 485 kts | 236° |
| 2026-05-01 09:54 | 38.53259 | -136.57941 | 30377 ft | 484 kts | 236° |
| 2026-05-01 09:55 | 38.49329 | -136.64928 | 30372 ft | 486 kts | 236° |
| 2026-05-01 09:55 | 38.45371 | -136.71959 | 30383 ft | 488 kts | 236° |
| 2026-05-01 09:56 | 38.41438 | -136.78927 | 30381 ft | 487 kts | 236° |
| 2026-05-01 09:56 | 38.37466 | -136.85944 | 30380 ft | 490 kts | 236° |
| 2026-05-01 09:57 | 38.33465 | -136.93004 | 30381 ft | 491 kts | 236° |
| 2026-05-01 09:57 | 38.29466 | -137.00042 | 30384 ft | 490 kts | 236° |
| 2026-05-01 09:58 | 38.25469 | -137.07059 | 30386 ft | 490 kts | 236° |
| 2026-05-01 09:58 | 38.21463 | -137.14080 | 30387 ft | 491 kts | 236° |
| 2026-05-01 09:59 | 38.17472 | -137.21061 | 30373 ft | 490 kts | 236° |
| 2026-05-01 09:59 | 38.13438 | -137.28100 | 30387 ft | 493 kts | 236° |
| 2026-05-01 10:00 | 38.09390 | -137.35145 | 30386 ft | 493 kts | 236° |
| 2026-05-01 10:00 | 38.05350 | -137.42164 | 30381 ft | 492 kts | 236° |
| 2026-05-01 10:01 | 38.01301 | -137.49186 | 30389 ft | 494 kts | 236° |
| 2026-05-01 10:01 | 37.97264 | -137.56171 | 30391 ft | 493 kts | 236° |
| 2026-05-01 10:02 | 37.93206 | -137.63175 | 30406 ft | 493 kts | 236° |
| 2026-05-01 10:02 | 37.89131 | -137.70196 | 30394 ft | 495 kts | 236° |
| 2026-05-01 10:03 | 37.85052 | -137.77209 | 30389 ft | 494 kts | 236° |
| 2026-05-01 10:03 | 37.80978 | -137.84200 | 30399 ft | 494 kts | 237° |
| 2026-05-01 10:04 | 37.76890 | -137.91195 | 30397 ft | 495 kts | 236° |
| 2026-05-01 10:04 | 37.72820 | -137.98145 | 30384 ft | 494 kts | 237° |
| 2026-05-01 10:05 | 37.68726 | -138.05128 | 30396 ft | 496 kts | 237° |
| 2026-05-01 10:05 | 37.64606 | -138.12131 | 30399 ft | 496 kts | 237° |
| 2026-05-01 10:06 | 37.60493 | -138.19113 | 30391 ft | 496 kts | 237° |
| 2026-05-01 10:06 | 37.56353 | -138.26125 | 30399 ft | 498 kts | 237° |
| 2026-05-01 10:07 | 37.52235 | -138.33090 | 30399 ft | 497 kts | 237° |
| 2026-05-01 10:07 | 37.48090 | -138.40083 | 30397 ft | 500 kts | 237° |
| 2026-05-01 10:08 | 37.41826 | -138.50617 | 30404 ft | 500 kts | 237° |
| 2026-05-01 10:09 | 37.37654 | -138.57618 | 30399 ft | 501 kts | 237° |
| 2026-05-01 10:09 | 37.33484 | -138.64599 | 30409 ft | 503 kts | 237° |
| 2026-05-01 10:10 | 37.29282 | -138.71619 | 30393 ft | 501 kts | 237° |
| 2026-05-01 10:10 | 37.22950 | -138.82170 | 30410 ft | 505 kts | 237° |
| 2026-05-01 10:11 | 37.18726 | -138.89192 | 30406 ft | 503 kts | 237° |
| 2026-05-01 10:11 | 37.14506 | -138.96193 | 30410 ft | 503 kts | 236° |
| 2026-05-01 10:12 | 37.10989 | -139.02013 | 30410 ft | 503 kts | 236° |
| 2026-05-01 10:13 | 37.03969 | -139.13604 | 30406 ft | 505 kts | 236° |
| 2026-05-01 10:13 | 36.99700 | -139.20631 | 30409 ft | 506 kts | 236° |
| 2026-05-01 10:14 | 36.93318 | -139.31110 | 30402 ft | 503 kts | 236° |
| 2026-05-01 10:14 | 36.89055 | -139.38099 | 30410 ft | 508 kts | 236° |
| 2026-05-01 10:15 | 36.84765 | -139.45109 | 30395 ft | 507 kts | 236° |
| 2026-05-01 10:15 | 36.80519 | -139.52033 | 30402 ft | 504 kts | 236° |
| 2026-05-01 10:16 | 36.76232 | -139.59016 | 30406 ft | 511 kts | 236° |
| 2026-05-01 10:17 | 36.69754 | -139.69530 | 30400 ft | 506 kts | 236° |
| 2026-05-01 10:17 | 36.63327 | -139.79934 | 30417 ft | 511 kts | 236° |
| 2026-05-01 10:18 | 36.56791 | -139.90481 | 30408 ft | 510 kts | 236° |
| 2026-05-01 10:19 | 36.52457 | -139.97454 | 30407 ft | 510 kts | 236° |
| 2026-05-01 10:19 | 36.48092 | -140.04464 | 30409 ft | 514 kts | 235° |
| 2026-05-01 10:20 | 36.41550 | -140.14945 | 30409 ft | 512 kts | 235° |
| 2026-05-01 10:20 | 36.37182 | -140.21924 | 30405 ft | 512 kts | 235° |
| 2026-05-01 10:21 | 36.30574 | -140.32458 | 30409 ft | 516 kts | 235° |
| 2026-05-01 10:22 | 36.24003 | -140.42896 | 30405 ft | 512 kts | 235° |
| 2026-05-01 10:23 | 36.17345 | -140.53443 | 30414 ft | 520 kts | 235° |
| 2026-05-01 10:23 | 36.10679 | -140.63971 | 30408 ft | 516 kts | 235° |
| 2026-05-01 10:24 | 36.01743 | -140.78027 | 30413 ft | 522 kts | 235° |
| 2026-05-01 10:25 | 35.92755 | -140.92112 | 30417 ft | 525 kts | 235° |
| 2026-05-01 10:26 | 35.88235 | -140.99169 | 30414 ft | 522 kts | 235° |
| 2026-05-01 10:27 | 35.79246 | -141.13175 | 30410 ft | 521 kts | 234° |
| 2026-05-01 10:28 | 35.72517 | -141.23614 | 30417 ft | 519 kts | 234° |
| 2026-05-01 10:28 | 35.65762 | -141.34068 | 30412 ft | 520 kts | 234° |
| 2026-05-01 10:29 | 35.59685 | -141.43441 | 30424 ft | 531 kts | 234° |
| 2026-05-01 10:30 | 35.49769 | -141.58684 | 30406 ft | 526 kts | 234° |
| 2026-05-01 10:31 | 35.41287 | -141.71671 | 30416 ft | 532 kts | 234° |
| 2026-05-01 10:32 | 35.34350 | -141.82252 | 30408 ft | 531 kts | 234° |
| 2026-05-01 10:33 | 35.25058 | -141.96381 | 30416 ft | 532 kts | 234° |
| 2026-05-01 10:34 | 35.18074 | -142.06958 | 30415 ft | 534 kts | 234° |
| 2026-05-01 10:34 | 35.13385 | -142.14044 | 30418 ft | 536 kts | 234° |
| 2026-05-01 10:35 | 35.06354 | -142.24642 | 30418 ft | 534 kts | 234° |
| 2026-05-01 10:35 | 35.01694 | -142.31652 | 30409 ft | 536 kts | 234° |
| 2026-05-01 10:36 | 34.94610 | -142.42265 | 30417 ft | 538 kts | 234° |
| 2026-05-01 10:37 | 34.89893 | -142.49319 | 30414 ft | 536 kts | 233° |
| 2026-05-01 10:37 | 34.82823 | -142.59856 | 30421 ft | 539 kts | 233° |
| 2026-05-01 10:38 | 34.78070 | -142.66920 | 30418 ft | 539 kts | 233° |
| 2026-05-01 10:38 | 34.73331 | -142.73955 | 30416 ft | 538 kts | 233° |
| 2026-05-01 10:39 | 34.68693 | -142.80827 | 30417 ft | 540 kts | 233° |
| 2026-05-01 10:39 | 34.63912 | -142.87891 | 30408 ft | 540 kts | 233° |
| 2026-05-01 10:40 | 34.59141 | -142.94927 | 30416 ft | 539 kts | 233° |
| 2026-05-01 10:40 | 34.54376 | -143.01946 | 30413 ft | 539 kts | 233° |
| 2026-05-01 10:41 | 34.49611 | -143.08946 | 30415 ft | 542 kts | 233° |
| 2026-05-01 10:42 | 34.42423 | -143.19479 | 30418 ft | 540 kts | 233° |
| 2026-05-01 10:42 | 34.37615 | -143.26511 | 30413 ft | 540 kts | 233° |
| 2026-05-01 10:43 | 34.32838 | -143.33479 | 30414 ft | 542 kts | 232° |
| 2026-05-01 10:43 | 34.28022 | -143.40492 | 30416 ft | 541 kts | 232° |
| 2026-05-01 10:44 | 34.23215 | -143.47481 | 30418 ft | 541 kts | 232° |
| 2026-05-01 10:44 | 34.18389 | -143.54478 | 30418 ft | 542 kts | 232° |
| 2026-05-01 10:45 | 34.13574 | -143.61450 | 30414 ft | 542 kts | 232° |
| 2026-05-01 10:45 | 34.08743 | -143.68433 | 30413 ft | 541 kts | 232° |
| 2026-05-01 10:46 | 34.03911 | -143.75397 | 30403 ft | 541 kts | 232° |
| 2026-05-01 10:46 | 33.99063 | -143.82376 | 30414 ft | 544 kts | 232° |
| 2026-05-01 10:47 | 33.94199 | -143.89364 | 30410 ft | 543 kts | 231° |
| 2026-05-01 10:47 | 33.89346 | -143.96318 | 30410 ft | 542 kts | 231° |
| 2026-05-01 10:48 | 33.84487 | -144.03273 | 30401 ft | 544 kts | 231° |
| 2026-05-01 10:48 | 33.79623 | -144.10219 | 30409 ft | 545 kts | 231° |
| 2026-05-01 10:49 | 33.74743 | -144.17172 | 30411 ft | 544 kts | 231° |
| 2026-05-01 10:49 | 33.69854 | -144.24129 | 30406 ft | 544 kts | 231° |
| 2026-05-01 10:50 | 33.64991 | -144.31035 | 30408 ft | 545 kts | 231° |
| 2026-05-01 10:50 | 33.60083 | -144.37986 | 30403 ft | 546 kts | 231° |
| 2026-05-01 10:51 | 33.55168 | -144.44941 | 30401 ft | 545 kts | 231° |
| 2026-05-01 10:51 | 33.50261 | -144.51866 | 30397 ft | 545 kts | 231° |
| 2026-05-01 10:52 | 33.45363 | -144.58766 | 30403 ft | 547 kts | 231° |
| 2026-05-01 10:52 | 33.40435 | -144.65697 | 30401 ft | 546 kts | 231° |
| 2026-05-01 10:53 | 33.35503 | -144.72618 | 30400 ft | 546 kts | 231° |
| 2026-05-01 10:53 | 33.30567 | -144.79531 | 30401 ft | 547 kts | 231° |
| 2026-05-01 10:54 | 33.25617 | -144.86454 | 30401 ft | 548 kts | 231° |
| 2026-05-01 10:54 | 33.20662 | -144.93371 | 30402 ft | 547 kts | 230° |
| 2026-05-01 10:55 | 33.15740 | -145.00224 | 30402 ft | 547 kts | 230° |
| 2026-05-01 10:55 | 33.10744 | -145.07167 | 30398 ft | 548 kts | 230° |
| 2026-05-01 10:56 | 33.05801 | -145.14030 | 30401 ft | 548 kts | 230° |
| 2026-05-01 10:56 | 33.00816 | -145.20933 | 30399 ft | 549 kts | 230° |
| 2026-05-01 10:57 | 32.95855 | -145.27789 | 30392 ft | 549 kts | 230° |
| 2026-05-01 10:57 | 32.90864 | -145.34676 | 30397 ft | 549 kts | 230° |
| 2026-05-01 10:58 | 32.85865 | -145.41563 | 30399 ft | 550 kts | 230° |
| 2026-05-01 10:58 | 32.80847 | -145.48458 | 30397 ft | 551 kts | 230° |
| 2026-05-01 10:59 | 32.75835 | -145.55334 | 30390 ft | 550 kts | 230° |
| 2026-05-01 10:59 | 32.70814 | -145.62212 | 30394 ft | 552 kts | 230° |
| 2026-05-01 11:00 | 32.65781 | -145.69091 | 30389 ft | 551 kts | 230° |
| 2026-05-01 11:00 | 32.60748 | -145.75954 | 30391 ft | 551 kts | 230° |
| 2026-05-01 11:01 | 32.55707 | -145.82822 | 30393 ft | 553 kts | 230° |
| 2026-05-01 11:01 | 32.50675 | -145.89661 | 30388 ft | 553 kts | 230° |
| 2026-05-01 11:02 | 32.45614 | -145.96525 | 30388 ft | 552 kts | 230° |
| 2026-05-01 11:02 | 32.40554 | -146.03380 | 30390 ft | 552 kts | 230° |
| 2026-05-01 11:03 | 32.35528 | -146.10173 | 30388 ft | 552 kts | 230° |
| 2026-05-01 11:03 | 32.30452 | -146.17020 | 30387 ft | 552 kts | 230° |
| 2026-05-01 11:04 | 32.25386 | -146.23841 | 30387 ft | 551 kts | 230° |
| 2026-05-01 11:04 | 32.20366 | -146.30592 | 30377 ft | 549 kts | 230° |
| 2026-05-01 11:05 | 32.15294 | -146.37396 | 30383 ft | 554 kts | 230° |
| 2026-05-01 11:05 | 32.10197 | -146.44221 | 30384 ft | 553 kts | 230° |
| 2026-05-01 11:06 | 32.05117 | -146.51014 | 30378 ft | 551 kts | 230° |
| 2026-05-01 11:06 | 32.00043 | -146.57787 | 30380 ft | 552 kts | 229° |
| 2026-05-01 11:07 | 31.92374 | -146.67996 | 30379 ft | 554 kts | 229° |
| 2026-05-01 11:07 | 31.87275 | -146.74768 | 30373 ft | 552 kts | 229° |
| 2026-05-01 11:08 | 31.82171 | -146.81537 | 30376 ft | 553 kts | 229° |
| 2026-05-01 11:09 | 31.74514 | -146.91667 | 30370 ft | 555 kts | 229° |
| 2026-05-01 11:09 | 31.69378 | -146.98449 | 30370 ft | 555 kts | 229° |
| 2026-05-01 11:10 | 31.61676 | -147.08592 | 30379 ft | 555 kts | 229° |
| 2026-05-01 11:10 | 31.56535 | -147.15347 | 30371 ft | 555 kts | 229° |
| 2026-05-01 11:11 | 31.51381 | -147.22106 | 30371 ft | 557 kts | 229° |
| 2026-05-01 11:11 | 31.46244 | -147.28834 | 30370 ft | 556 kts | 229° |
| 2026-05-01 11:12 | 31.41090 | -147.35571 | 30374 ft | 555 kts | 229° |
| 2026-05-01 11:12 | 31.35933 | -147.42298 | 30369 ft | 557 kts | 229° |
| 2026-05-01 11:13 | 31.30742 | -147.49058 | 30368 ft | 558 kts | 229° |
| 2026-05-01 11:13 | 31.25564 | -147.55792 | 30372 ft | 556 kts | 229° |
| 2026-05-01 11:14 | 31.20392 | -147.62503 | 30366 ft | 555 kts | 229° |
| 2026-05-01 11:14 | 31.15210 | -147.69216 | 30362 ft | 558 kts | 229° |
| 2026-05-01 11:15 | 31.10032 | -147.75912 | 30373 ft | 559 kts | 229° |
| 2026-05-01 11:15 | 31.04831 | -147.82628 | 30362 ft | 555 kts | 229° |
| 2026-05-01 11:16 | 30.99640 | -147.89315 | 30358 ft | 556 kts | 229° |
| 2026-05-01 11:16 | 30.94462 | -147.95977 | 30354 ft | 559 kts | 229° |
| 2026-05-01 11:17 | 30.89225 | -148.02704 | 30360 ft | 559 kts | 229° |
| 2026-05-01 11:17 | 30.84892 | -148.08260 | 30356 ft | 557 kts | 228° |
| 2026-05-01 11:18 | 30.79677 | -148.14933 | 30359 ft | 558 kts | 228° |
| 2026-05-01 11:18 | 30.74448 | -148.21613 | 30359 ft | 558 kts | 228° |
| 2026-05-01 11:19 | 30.69210 | -148.28297 | 30357 ft | 559 kts | 228° |
| 2026-05-01 11:19 | 30.63971 | -148.34969 | 30355 ft | 558 kts | 228° |
| 2026-05-01 11:20 | 30.58763 | -148.41587 | 30356 ft | 558 kts | 228° |
| 2026-05-01 11:20 | 30.53520 | -148.48240 | 30343 ft | 557 kts | 228° |
| 2026-05-01 11:21 | 30.48274 | -148.54889 | 30350 ft | 560 kts | 228° |
| 2026-05-01 11:21 | 30.43008 | -148.61548 | 30351 ft | 560 kts | 228° |
| 2026-05-01 11:22 | 30.37737 | -148.68199 | 30360 ft | 558 kts | 228° |
| 2026-05-01 11:22 | 30.32523 | -148.74772 | 30349 ft | 556 kts | 228° |
| 2026-05-01 11:23 | 30.27277 | -148.81375 | 30346 ft | 558 kts | 228° |
| 2026-05-01 11:23 | 30.22019 | -148.87977 | 30346 ft | 558 kts | 228° |
| 2026-05-01 11:24 | 30.16756 | -148.94575 | 30347 ft | 556 kts | 228° |
| 2026-05-01 11:25 | 30.08878 | -149.04432 | 30338 ft | 557 kts | 228° |
| 2026-05-01 11:25 | 30.00994 | -149.14283 | 30340 ft | 559 kts | 228° |
| 2026-05-01 11:26 | 29.93080 | -149.24150 | 30337 ft | 558 kts | 228° |
| 2026-05-01 11:27 | 29.87797 | -149.30724 | 30341 ft | 559 kts | 228° |
| 2026-05-01 11:27 | 29.82501 | -149.37301 | 30339 ft | 560 kts | 227° |
| 2026-05-01 11:28 | 29.77204 | -149.43869 | 30340 ft | 558 kts | 228° |
| 2026-05-01 11:28 | 29.71920 | -149.50413 | 30335 ft | 558 kts | 228° |
| 2026-05-01 11:29 | 29.63995 | -149.60203 | 30324 ft | 559 kts | 227° |
| 2026-05-01 11:30 | 29.56031 | -149.70018 | 30333 ft | 560 kts | 227° |
| 2026-05-01 11:30 | 29.50706 | -149.76568 | 30332 ft | 560 kts | 227° |
| 2026-05-01 11:31 | 29.45382 | -149.83103 | 30340 ft | 559 kts | 227° |
| 2026-05-01 11:31 | 29.40071 | -149.89612 | 30316 ft | 558 kts | 227° |
| 2026-05-01 11:32 | 29.34784 | -149.96086 | 30326 ft | 560 kts | 227° |
| 2026-05-01 11:32 | 29.29441 | -150.02611 | 30322 ft | 560 kts | 227° |
| 2026-05-01 11:33 | 29.24103 | -150.09121 | 30328 ft | 559 kts | 227° |
| 2026-05-01 11:33 | 29.18777 | -150.15609 | 30321 ft | 559 kts | 227° |
| 2026-05-01 11:34 | 29.13474 | -150.22058 | 30317 ft | 561 kts | 227° |
| 2026-05-01 11:34 | 29.08109 | -150.28567 | 30319 ft | 561 kts | 227° |
| 2026-05-01 11:35 | 29.02758 | -150.35052 | 30318 ft | 559 kts | 227° |
| 2026-05-01 11:35 | 28.97428 | -150.41503 | 30313 ft | 559 kts | 227° |
| 2026-05-01 11:36 | 28.92100 | -150.47938 | 30303 ft | 560 kts | 227° |
| 2026-05-01 11:36 | 28.86731 | -150.54412 | 30321 ft | 561 kts | 227° |
| 2026-05-01 11:37 | 28.81371 | -150.60867 | 30310 ft | 559 kts | 227° |
| 2026-05-01 11:37 | 28.76016 | -150.67306 | 30309 ft | 559 kts | 227° |
| 2026-05-01 11:38 | 28.70649 | -150.73746 | 30310 ft | 560 kts | 227° |
| 2026-05-01 11:38 | 28.65312 | -150.80141 | 30305 ft | 560 kts | 227° |
| 2026-05-01 11:39 | 28.59944 | -150.86567 | 30303 ft | 559 kts | 227° |
| 2026-05-01 11:39 | 28.54576 | -150.92977 | 30305 ft | 559 kts | 227° |
| 2026-05-01 11:40 | 28.49203 | -150.99384 | 30304 ft | 560 kts | 227° |
| 2026-05-01 11:40 | 28.43827 | -151.05787 | 30286 ft | 559 kts | 227° |
| 2026-05-01 11:41 | 28.38478 | -151.12147 | 30294 ft | 560 kts | 227° |
| 2026-05-01 11:41 | 28.33079 | -151.18554 | 30296 ft | 560 kts | 227° |
| 2026-05-01 11:42 | 28.27689 | -151.24945 | 30294 ft | 560 kts | 227° |
| 2026-05-01 11:42 | 28.22301 | -151.31322 | 30295 ft | 559 kts | 227° |
| 2026-05-01 11:43 | 28.16947 | -151.37644 | 30280 ft | 559 kts | 227° |
| 2026-05-01 11:43 | 28.11557 | -151.44003 | 30289 ft | 560 kts | 227° |
| 2026-05-01 11:44 | 28.03460 | -151.53537 | 30281 ft | 559 kts | 227° |
| 2026-05-01 11:44 | 27.98063 | -151.59882 | 30282 ft | 559 kts | 227° |
| 2026-05-01 11:45 | 27.92689 | -151.66186 | 30283 ft | 560 kts | 227° |
| 2026-05-01 11:45 | 27.87279 | -151.72523 | 30279 ft | 559 kts | 227° |
| 2026-05-01 11:46 | 27.81872 | -151.78849 | 30283 ft | 559 kts | 227° |
| 2026-05-01 11:46 | 27.76461 | -151.85170 | 30281 ft | 559 kts | 227° |
| 2026-05-01 11:47 | 27.71050 | -151.91478 | 30278 ft | 559 kts | 227° |
| 2026-05-01 11:47 | 27.65631 | -151.97787 | 30271 ft | 559 kts | 227° |
| 2026-05-01 11:48 | 27.60238 | -152.04060 | 30273 ft | 559 kts | 227° |
| 2026-05-01 11:48 | 27.54815 | -152.10354 | 30277 ft | 559 kts | 227° |
| 2026-05-01 11:49 | 27.49398 | -152.16632 | 30269 ft | 559 kts | 227° |
| 2026-05-01 11:49 | 27.43972 | -152.22914 | 30252 ft | 559 kts | 227° |
| 2026-05-01 11:50 | 27.38574 | -152.29152 | 30259 ft | 559 kts | 227° |
| 2026-05-01 11:50 | 27.33144 | -152.35416 | 30261 ft | 559 kts | 227° |
| 2026-05-01 11:51 | 27.27715 | -152.41672 | 30270 ft | 559 kts | 227° |
| 2026-05-01 11:51 | 27.22284 | -152.47923 | 30267 ft | 559 kts | 227° |
| 2026-05-01 11:52 | 27.16839 | -152.54176 | 30251 ft | 559 kts | 227° |
| 2026-05-01 11:52 | 27.11425 | -152.60385 | 30273 ft | 558 kts | 227° |
| 2026-05-01 11:53 | 27.05989 | -152.66614 | 30259 ft | 559 kts | 227° |
| 2026-05-01 11:53 | 27.00541 | -152.72846 | 30255 ft | 559 kts | 227° |
| 2026-05-01 11:54 | 26.95092 | -152.79067 | 30267 ft | 558 kts | 227° |
| 2026-05-01 11:54 | 26.89646 | -152.85276 | 30242 ft | 558 kts | 227° |
| 2026-05-01 11:55 | 26.84239 | -152.91436 | 30253 ft | 558 kts | 227° |
| 2026-05-01 11:55 | 26.78784 | -152.97637 | 30247 ft | 558 kts | 227° |
| 2026-05-01 11:56 | 26.73336 | -153.03821 | 30247 ft | 557 kts | 227° |
| 2026-05-01 11:56 | 26.67890 | -153.09997 | 30248 ft | 558 kts | 227° |
| 2026-05-01 11:57 | 26.63352 | -153.15136 | 30233 ft | 558 kts | 227° |
| 2026-05-01 11:57 | 26.56970 | -153.22350 | 30242 ft | 558 kts | 227° |
| 2026-05-01 11:58 | 26.51539 | -153.28482 | 30241 ft | 558 kts | 227° |
| 2026-05-01 11:59 | 26.43334 | -153.37726 | 30240 ft | 558 kts | 227° |
| 2026-05-01 11:59 | 26.37865 | -153.43879 | 30219 ft | 558 kts | 227° |
| 2026-05-01 12:00 | 26.29693 | -153.53054 | 30232 ft | 557 kts | 227° |
| 2026-05-01 12:01 | 26.21480 | -153.62256 | 30233 ft | 558 kts | 227° |
| 2026-05-01 12:01 | 26.16002 | -153.68385 | 30230 ft | 557 kts | 227° |
| 2026-05-01 12:02 | 26.10522 | -153.74504 | 30210 ft | 557 kts | 227° |
| 2026-05-01 12:02 | 26.05046 | -153.80610 | 30220 ft | 557 kts | 227° |
| 2026-05-01 12:03 | 25.99575 | -153.86705 | 30224 ft | 556 kts | 227° |
| 2026-05-01 12:03 | 25.94128 | -153.92764 | 30225 ft | 556 kts | 227° |
| 2026-05-01 12:04 | 25.88651 | -153.98845 | 30225 ft | 557 kts | 226° |
| 2026-05-01 12:04 | 25.83166 | -154.04929 | 30217 ft | 557 kts | 227° |
| 2026-05-01 12:05 | 25.77677 | -154.11009 | 30218 ft | 556 kts | 226° |
| 2026-05-01 12:05 | 25.70371 | -154.19087 | 30226 ft | 557 kts | 226° |
| 2026-05-01 12:06 | 25.64916 | -154.25111 | 30226 ft | 556 kts | 226° |
| 2026-05-01 12:06 | 25.59427 | -154.31162 | 30223 ft | 555 kts | 226° |
| 2026-05-01 12:07 | 25.53937 | -154.37204 | 30198 ft | 556 kts | 226° |
| 2026-05-01 12:07 | 25.48475 | -154.43212 | 30225 ft | 556 kts | 226° |
| 2026-05-01 12:08 | 25.42978 | -154.49248 | 30209 ft | 556 kts | 226° |
| 2026-05-01 12:08 | 25.37488 | -154.55266 | 30220 ft | 555 kts | 226° |
| 2026-05-01 12:09 | 25.31997 | -154.61278 | 30213 ft | 555 kts | 226° |
| 2026-05-01 12:09 | 25.26523 | -154.67266 | 30209 ft | 556 kts | 226° |
| 2026-05-01 12:10 | 25.18268 | -154.76277 | 30217 ft | 555 kts | 226° |
| 2026-05-01 12:11 | 25.10027 | -154.85256 | 30212 ft | 554 kts | 226° |
| 2026-05-01 12:11 | 25.04528 | -154.91237 | 30206 ft | 555 kts | 226° |
| 2026-05-01 12:12 | 24.99020 | -154.97218 | 30209 ft | 555 kts | 226° |
| 2026-05-01 12:12 | 24.93560 | -155.03143 | 30196 ft | 554 kts | 226° |
| 2026-05-01 12:13 | 24.88055 | -155.09108 | 30199 ft | 555 kts | 226° |
| 2026-05-01 12:13 | 24.82529 | -155.15085 | 30200 ft | 555 kts | 226° |
| 2026-05-01 12:14 | 24.77050 | -155.21005 | 30188 ft | 554 kts | 226° |
| 2026-05-01 12:14 | 24.71712 | -155.27113 | 30194 ft | 552 kts | 232° |
| 2026-05-01 12:15 | 24.67274 | -155.33958 | 30200 ft | 550 kts | 237° |
| 2026-05-01 12:15 | 24.62887 | -155.40866 | 30191 ft | 550 kts | 238° |
| 2026-05-01 12:16 | 24.58497 | -155.47755 | 30195 ft | 549 kts | 238° |
| 2026-05-01 12:16 | 24.54137 | -155.54593 | 30193 ft | 549 kts | 238° |
| 2026-05-01 12:17 | 24.49747 | -155.61467 | 30164 ft | 550 kts | 238° |
| 2026-05-01 12:17 | 24.45354 | -155.68333 | 30187 ft | 548 kts | 238° |
| 2026-05-01 12:18 | 24.40968 | -155.75184 | 30189 ft | 548 kts | 238° |
| 2026-05-01 12:18 | 24.36572 | -155.82036 | 30190 ft | 549 kts | 237° |
| 2026-05-01 12:19 | 24.32202 | -155.88839 | 30186 ft | 548 kts | 238° |
| 2026-05-01 12:19 | 24.27803 | -155.95681 | 30179 ft | 548 kts | 237° |
| 2026-05-01 12:20 | 24.23415 | -156.02491 | 30184 ft | 547 kts | 237° |
| 2026-05-01 12:20 | 24.19014 | -156.09316 | 30184 ft | 548 kts | 237° |
| 2026-05-01 12:21 | 24.14637 | -156.16096 | 30183 ft | 548 kts | 237° |
| 2026-05-01 12:21 | 24.10238 | -156.22895 | 30183 ft | 547 kts | 237° |
| 2026-05-01 12:22 | 24.05794 | -156.29668 | 30160 ft | 548 kts | 232° |
| 2026-05-01 12:22 | 24.03007 | -156.32535 | 30173 ft | 553 kts | 217° |
| 2026-05-01 12:22 | 23.99654 | -156.34592 | 30193 ft | 556 kts | 202° |
| 2026-05-01 12:23 | 23.92189 | -156.36672 | 30198 ft | 558 kts | 191° |
| 2026-05-01 12:23 | 23.84547 | -156.38226 | 30164 ft | 557 kts | 190° |
| 2026-05-01 12:24 | 23.77005 | -156.40110 | 30164 ft | 556 kts | 196° |
| 2026-05-01 12:24 | 23.69522 | -156.42319 | 30167 ft | 558 kts | 196° |
| 2026-05-01 12:25 | 23.58321 | -156.45640 | 30163 ft | 557 kts | 195° |
| 2026-05-01 12:26 | 23.50831 | -156.47858 | 30160 ft | 557 kts | 195° |
| 2026-05-01 12:26 | 23.39653 | -156.51162 | 30155 ft | 557 kts | 195° |
| 2026-05-01 12:27 | 23.28416 | -156.54476 | 30155 ft | 557 kts | 195° |
| 2026-05-01 12:28 | 23.17186 | -156.57783 | 30150 ft | 557 kts | 195° |
| 2026-05-01 12:29 | 23.06045 | -156.61058 | 30148 ft | 555 kts | 195° |
| 2026-05-01 12:29 | 22.94835 | -156.64347 | 30146 ft | 556 kts | 195° |
| 2026-05-01 12:30 | 22.83635 | -156.67629 | 30143 ft | 555 kts | 195° |
| 2026-05-01 12:31 | 22.76229 | -156.69796 | 30143 ft | 555 kts | 195° |
| 2026-05-01 12:31 | 22.69043 | -156.71895 | 30138 ft | 555 kts | 195° |
| 2026-05-01 12:31 | 22.65347 | -156.72975 | 30117 ft | 535 kts | 195° |
| 2026-05-01 12:32 | 22.61855 | -156.73992 | 30030 ft | 504 kts | 195° |
| 2026-05-01 12:32 | 22.55380 | -156.75882 | 29233 ft | 466 kts | 195° |
| 2026-05-01 12:32 | 22.52286 | -156.76785 | 28698 ft | 456 kts | 195° |
| 2026-05-01 12:33 | 22.49240 | -156.77670 | 28191 ft | 450 kts | 195° |
| 2026-05-01 12:33 | 22.46218 | -156.78550 | 27702 ft | 447 kts | 195° |
| 2026-05-01 12:33 | 22.43258 | -156.79412 | 27236 ft | 445 kts | 195° |
| 2026-05-01 12:33 | 22.40277 | -156.80279 | 26753 ft | 443 kts | 195° |
| 2026-05-01 12:34 | 22.37307 | -156.81142 | 26289 ft | 440 kts | 195° |
| 2026-05-01 12:34 | 22.34369 | -156.81996 | 25819 ft | 431 kts | 195° |
| 2026-05-01 12:34 | 22.31505 | -156.82828 | 25343 ft | 421 kts | 195° |
| 2026-05-01 12:34 | 22.28698 | -156.83643 | 24884 ft | 415 kts | 195° |
| 2026-05-01 12:35 | 22.25916 | -156.84450 | 24430 ft | 411 kts | 195° |
| 2026-05-01 12:35 | 22.23162 | -156.85250 | 24008 ft | 409 kts | 195° |
| 2026-05-01 12:35 | 22.20416 | -156.86046 | 23558 ft | 408 kts | 195° |
| 2026-05-01 12:35 | 22.17695 | -156.86833 | 23044 ft | 401 kts | 195° |
| 2026-05-01 12:36 | 22.15029 | -156.87607 | 22531 ft | 392 kts | 195° |
| 2026-05-01 12:36 | 22.12428 | -156.88361 | 22027 ft | 383 kts | 195° |
| 2026-05-01 12:36 | 22.09878 | -156.89098 | 21534 ft | 375 kts | 195° |
| 2026-05-01 12:36 | 22.07376 | -156.89824 | 21043 ft | 369 kts | 195° |
| 2026-05-01 12:37 | 22.04921 | -156.90533 | 20586 ft | 361 kts | 195° |
| 2026-05-01 12:37 | 22.02516 | -156.91229 | 20140 ft | 355 kts | 195° |
| 2026-05-01 12:37 | 22.00175 | -156.91906 | 19665 ft | 351 kts | 195° |
| 2026-05-01 12:37 | 21.97830 | -156.92583 | 19225 ft | 347 kts | 195° |
| 2026-05-01 12:38 | 21.95499 | -156.93257 | 18785 ft | 346 kts | 195° |
| 2026-05-01 12:38 | 21.93184 | -156.93927 | 18341 ft | 342 kts | 195° |
| 2026-05-01 12:38 | 21.90884 | -156.94589 | 17830 ft | 341 kts | 195° |
| 2026-05-01 12:38 | 21.88642 | -156.95238 | 17724 ft | 323 kts | 195° |
| 2026-05-01 12:39 | 21.86603 | -156.96026 | 17663 ft | 301 kts | 211° |
| 2026-05-01 12:39 | 21.84877 | -156.97180 | 17756 ft | 288 kts | 217° |
| 2026-05-01 12:39 | 21.83279 | -156.98503 | 17585 ft | 295 kts | 223° |
| 2026-05-01 12:39 | 21.81744 | -156.99989 | 17128 ft | 297 kts | 226° |
| 2026-05-01 12:40 | 21.80269 | -157.01520 | 16752 ft | 290 kts | 227° |
| 2026-05-01 12:40 | 21.78916 | -157.03118 | 16491 ft | 299 kts | 232° |
| 2026-05-01 12:40 | 21.77519 | -157.04979 | 16218 ft | 334 kts | 233° |
| 2026-05-01 12:40 | 21.76043 | -157.06909 | 15961 ft | 331 kts | 231° |
| 2026-05-01 12:41 | 21.74566 | -157.08778 | 15745 ft | 327 kts | 232° |
| 2026-05-01 12:41 | 21.73110 | -157.10653 | 15539 ft | 324 kts | 232° |
| 2026-05-01 12:41 | 21.71701 | -157.12483 | 15332 ft | 321 kts | 232° |
| 2026-05-01 12:41 | 21.70262 | -157.14330 | 15129 ft | 322 kts | 232° |
| 2026-05-01 12:42 | 21.68835 | -157.16167 | 14936 ft | 318 kts | 231° |
| 2026-05-01 12:42 | 21.67413 | -157.17991 | 14731 ft | 318 kts | 232° |
| 2026-05-01 12:42 | 21.65988 | -157.19821 | 14537 ft | 318 kts | 232° |
| 2026-05-01 12:42 | 21.64576 | -157.21640 | 14343 ft | 315 kts | 232° |
| 2026-05-01 12:43 | 21.63163 | -157.23450 | 14135 ft | 317 kts | 232° |
| 2026-05-01 12:43 | 21.61751 | -157.25265 | 13961 ft | 315 kts | 231° |
| 2026-05-01 12:43 | 21.60372 | -157.27040 | 13779 ft | 313 kts | 231° |
| 2026-05-01 12:43 | 21.58937 | -157.28878 | 13609 ft | 329 kts | 231° |
| 2026-05-01 12:44 | 21.57478 | -157.30749 | 13441 ft | 323 kts | 231° |
| 2026-05-01 12:44 | 21.56036 | -157.32594 | 13218 ft | 323 kts | 231° |
| 2026-05-01 12:44 | 21.53154 | -157.36290 | 12835 ft | 319 kts | 231° |
| 2026-05-01 12:45 | 21.50292 | -157.39956 | 12461 ft | 317 kts | 230° |
| 2026-05-01 12:45 | 21.48897 | -157.41742 | 12264 ft | 316 kts | 230° |
| 2026-05-01 12:45 | 21.47479 | -157.43553 | 12083 ft | 317 kts | 230° |
| 2026-05-01 12:46 | 21.46063 | -157.45366 | 11904 ft | 313 kts | 230° |
| 2026-05-01 12:46 | 21.44657 | -157.47163 | 11715 ft | 315 kts | 230° |
| 2026-05-01 12:46 | 21.43252 | -157.48963 | 11531 ft | 313 kts | 230° |
| 2026-05-01 12:46 | 21.41854 | -157.50748 | 11349 ft | 311 kts | 230° |
| 2026-05-01 12:47 | 21.40459 | -157.52527 | 11170 ft | 314 kts | 230° |
| 2026-05-01 12:47 | 21.39058 | -157.54314 | 10991 ft | 311 kts | 230° |
| 2026-05-01 12:47 | 21.37675 | -157.56076 | 10805 ft | 308 kts | 230° |
| 2026-05-01 12:47 | 21.36312 | -157.57819 | 10632 ft | 310 kts | 230° |
| 2026-05-01 12:48 | 21.34917 | -157.59601 | 10457 ft | 306 kts | 230° |
| 2026-05-01 12:48 | 21.33570 | -157.61317 | 10292 ft | 305 kts | 230° |
| 2026-05-01 12:48 | 21.32199 | -157.63062 | 10115 ft | 305 kts | 230° |
| 2026-05-01 12:48 | 21.30833 | -157.64799 | 9941 ft | 303 kts | 230° |
| 2026-05-01 12:49 | 21.29472 | -157.66532 | 9735 ft | 304 kts | 230° |
| 2026-05-01 12:49 | 21.28134 | -157.68290 | 9695 ft | 304 kts | 230° |
| 2026-05-01 12:49 | 21.26769 | -157.70010 | 9729 ft | 302 kts | 228° |
| 2026-05-01 12:49 | 21.25373 | -157.71718 | 9696 ft | 302 kts | 228° |
| 2026-05-01 12:50 | 21.24042 | -157.73362 | 9675 ft | 285 kts | 229° |
| 2026-05-01 12:50 | 21.22776 | -157.74946 | 9560 ft | 277 kts | 230° |
| 2026-05-01 12:50 | 21.21518 | -157.76526 | 9410 ft | 281 kts | 229° |
| 2026-05-01 12:50 | 21.20265 | -157.78088 | 9249 ft | 279 kts | 229° |
| 2026-05-01 12:51 | 21.19005 | -157.79650 | 9086 ft | 274 kts | 229° |
| 2026-05-01 12:51 | 21.17750 | -157.81211 | 9029 ft | 278 kts | 228° |
| 2026-05-01 12:51 | 21.15355 | -157.84189 | 8679 ft | 257 kts | 228° |
| 2026-05-01 12:52 | 21.14188 | -157.85642 | 8398 ft | 255 kts | 228° |
| 2026-05-01 12:52 | 21.11846 | -157.88551 | 7843 ft | 255 kts | 228° |
| 2026-05-01 12:52 | 21.10735 | -157.89932 | 7536 ft | 242 kts | 225° |
| 2026-05-01 12:53 | 21.08629 | -157.92720 | 6825 ft | 243 kts | 242° |
| 2026-05-01 12:53 | 21.08307 | -157.94491 | 6447 ft | 243 kts | 275° |
| 2026-05-01 12:53 | 21.08858 | -157.96166 | 6114 ft | 238 kts | 308° |
| 2026-05-01 12:54 | 21.09936 | -157.97512 | 5811 ft | 236 kts | 318° |
| 2026-05-01 12:54 | 21.11832 | -157.99628 | 5041 ft | 236 kts | 318° |
| 2026-05-01 12:54 | 21.12880 | -158.00960 | 4534 ft | 232 kts | 315° |
| 2026-05-01 12:55 | 21.15067 | -158.03417 | 3528 ft | 223 kts | 323° |
| 2026-05-01 12:55 | 21.16241 | -158.04430 | 3269 ft | 212 kts | 332° |
| 2026-05-01 12:55 | 21.17852 | -158.05666 | 3102 ft | 215 kts | 330° |
| 2026-05-01 12:56 | 21.18670 | -158.06308 | 3061 ft | 219 kts | 329° |
| 2026-05-01 12:56 | 21.19937 | -158.07166 | 3009 ft | 209 kts | 349° |
| 2026-05-01 12:56 | 21.21302 | -158.07145 | 3004 ft | 192 kts | 28° |
| 2026-05-01 12:56 | 21.22277 | -158.06231 | 2958 ft | 188 kts | 59° |
| 2026-05-01 12:57 | 21.22941 | -158.05108 | 2841 ft | 166 kts | 60° |
| 2026-05-01 12:57 | 21.24153 | -158.03113 | 2325 ft | 156 kts | 56° |
| 2026-05-01 12:57 | 21.24819 | -158.02200 | 2134 ft | 156 kts | 53° |
| 2026-05-01 12:58 | 21.25514 | -158.01292 | 2061 ft | 161 kts | 53° |
| 2026-05-01 12:58 | 21.26192 | -158.00356 | 2023 ft | 160 kts | 56° |
| 2026-05-01 12:58 | 21.26830 | -157.99396 | 1767 ft | 155 kts | 56° |
| 2026-05-01 12:59 | 21.28113 | -157.97598 | 1363 ft | 147 kts | 56° |
| 2026-05-01 12:59 | 21.28753 | -157.96661 | 1199 ft | 162 kts | 53° |
| 2026-05-01 12:59 | 21.30129 | -157.94749 | 849 ft | 157 kts | 54° |
| 2026-05-01 13:00 | 21.31456 | -157.92892 | 231 ft | 148 kts | 54° |
| 2026-05-01 13:00 | 21.32012 | -157.92091 | 32 ft | 125 kts | 53° |
| 2026-05-01 13:01 | 21.32484 | -157.91416 | 30 ft | 21 kts | 53° |
| 2026-05-01 13:01 | 21.32570 | -157.91336 | 30 ft | 14 kts | 19° |
| 2026-05-01 13:01 | 21.32683 | -157.91344 | 30 ft | 8 kts | 303° |
| 2026-05-01 13:02 | 21.32693 | -157.91444 | 30 ft | 16 kts | 269° |